Portersville, Pennsylvania
Current Conditions -  °F | °C
As of 8:35 AM on Friday 28 Nov 2014 (Local Time) from KBTP Reporting Station
Clear Clear  
Wind Chill: 12°   Ceiling: Unl
Heat Index: 23°   Visibility: 10mi
Dew Point: 10°   Wind: 10mph
Humidity: 59%   Direction: 250°WSW
Pressure: 30.31"   Gusts: NA
Location:  40.92°N, 80.14°W
Report Text: KBTP 281335Z AUTO 25009KT 10SM CLR M05/M12 A3031 RMK AO1
Loading
Personal Weather Stations






























Interactive Weather Map New forecast layout! Learn more

10-Day Weather Forecast

Advertisements
Track Severe Weather on mobile